WetterOnline ( https://www.wetteronline.de )

Wetter aktuell Bremerhaven

Aktuelles Wetter: Bremerhaven (11m)

6-stündlich | Neueste Meldungen
Ortszeit Temperatur Wetter
Fr, 06.12. 1:00 4.3° C Regen
Do, 05.12. 19:00 2.5° C bedeckt
Do, 05.12. 13:00 4.0° C leicht bewölkt
Do, 05.12. 7:00 1.7° C wolkenlos
Do, 05.12. 1:00 2.1° C wolkenlos
Mi, 04.12. 19:00 4.5° C fast wolkenlos
Mi, 04.12. 13:00 5.4° C bedeckt
Mi, 04.12. 7:00 4.6° C bedeckt
Ortszeit Temperatur Wetter
Fr, 06.12. 1:00 4.3° C Regen
Fr, 06.12. 0:40 4.2° C Sprühregen
Fr, 06.12. 0:30 4.0° C leichter Regen
Fr, 06.12. 0:20 4.0° C leichter Regen
Fr, 06.12. 0:10 4.1° C leichter Regen
Fr, 06.12. 0:00 4.1° C leichter Regen
Do, 05.12. 23:50 4.1° C leichter Regen
Do, 05.12. 23:30 3.9° C bewölkt
Do, 05.12. 23:00 3.7° C bewölkt
Ortszeit Relative Feuchte Sichtweite
Fr, 06.12. 1:00 91% 4.8 km
Do, 05.12. 19:00 93% 4.5 km
Do, 05.12. 13:00 86% 11 km
Do, 05.12. 7:00 95% 6 km
Do, 05.12. 1:00 93% 8 km
Mi, 04.12. 19:00 93% 7 km
Mi, 04.12. 13:00 92% 4.7 km
Mi, 04.12. 7:00 95% 2.5 km
Ortszeit Relative Feuchte Sichtweite
Fr, 06.12. 1:00 91% 4.8 km
Fr, 06.12. 0:40 91% -
Fr, 06.12. 0:30 91% 4.7 km
Fr, 06.12. 0:20 91% -
Fr, 06.12. 0:10 90% -
Fr, 06.12. 0:00 89% 5.0 km
Do, 05.12. 23:50 89% -
Do, 05.12. 23:30 90% 5.0 km
Do, 05.12. 23:00 91% 4.6 km
Ortszeit Niederschlagsmenge Niederschlagsart
Fr, 06.12. 1:00 0.2 l/m2 in 6 Std. Regen
Do, 05.12. 19:00 0.0 l/m2 in 12 Std. -
Do, 05.12. 13:00 0.0 l/m2 in 6 Std. -
Do, 05.12. 7:00 0.0 l/m2 in 12 Std. -
Do, 05.12. 1:00 0.0 l/m2 in 6 Std. -
Mi, 04.12. 19:00 0.0 l/m2 in 12 Std. -
Mi, 04.12. 13:00 0.0 l/m2 in 6 Std. -
Mi, 04.12. 7:00 0.0 l/m2 in 12 Std. -
Ortszeit Niederschlagsmenge Niederschlagsart
Fr, 06.12. 1:00 0.2 l/m2 in 1 Std. Regen
Fr, 06.12. 0:40 keine Meldung -
Fr, 06.12. 0:30 0.1 l/m2 in 1 Std. -
Fr, 06.12. 0:20 keine Meldung -
Fr, 06.12. 0:10 keine Meldung -
Fr, 06.12. 0:00 0.1 l/m2 in 1 Std. Regen
Do, 05.12. 23:50 keine Meldung -
Do, 05.12. 23:30 0.0 l/m2 in 1 Std. -
Do, 05.12. 23:00 0.0 l/m2 in 1 Std. -
Ortszeit Stärke Spitze Richtung
km/h Bft. km/h Grad Sektor
Fr, 06.12. 1:00 44 6 57 210° SW
Do, 05.12. 19:00 33 5 48 200° S
Do, 05.12. 13:00 20 4 26 200° S
Do, 05.12. 7:00 15 3 20 220° SW
Do, 05.12. 1:00 9 2 22 180° S
Mi, 04.12. 19:00 11 2 25 190° S
Mi, 04.12. 13:00 14 3 36 230° SW
Mi, 04.12. 7:00 22 4 39 230° SW
Ortszeit Stärke Spitze Richtung
km/h Bft. km/h Grad Sektor
Fr, 06.12. 1:00 44 6 57 210° SW
Fr, 06.12. 0:40 43 6 - 210° SW
Fr, 06.12. 0:30 43 6 58 210° SW
Fr, 06.12. 0:20 43 6 - 210° SW
Fr, 06.12. 0:10 43 6 - 210° SW
Fr, 06.12. 0:00 40 6 54 210° SW
Do, 05.12. 23:50 40 6 - 210° SW
Do, 05.12. 23:30 43 6 54 210° SW
Do, 05.12. 23:00 43 6 58 210° SW
Ortszeit Untergrenze Bedeckung Gattung
total tief tief mittel hoch
Fr, 06.12. 1:00 360 m 7/8 7/8 - - -
Do, 05.12. 19:00 180 m 8/8 8/8 - - -
Do, 05.12. 13:00 10500 m 3/8 0/8 - - -
Do, 05.12. 7:00 - 0/8 0/8 - - -
Do, 05.12. 1:00 - 0/8 0/8 - - -
Mi, 04.12. 19:00 12000 m 2/8 0/8 - - -
Mi, 04.12. 13:00 180 m 8/8 8/8 - - -
Mi, 04.12. 7:00 120 m 8/8 8/8 - - -
Ortszeit Bedeckungsgrad in Achtel und Wolkenuntergrenze
Fr, 06.12. 1:00 7(360m) 7(2400m)
Fr, 06.12. 0:40 6(390m) 7(2100m) 7(2700m)
Fr, 06.12. 0:30 5(420m) 7(1500m) 7(2100m)
Fr, 06.12. 0:20 5(420m) 7(1500m) 7(2100m)
Fr, 06.12. 0:10 6(420m) 8(1500m)
Fr, 06.12. 0:00 5(390m) 8(3600m) 8(4500m)
Do, 05.12. 23:50 5(390m) 8(3600m) 8(4500m)
Do, 05.12. 23:30 7(330m) 8(3900m) 8(5100m)
Do, 05.12. 23:00 7(240m)
Ortszeit Luftdruck NN (hPa) Tendenz (hPa in 3 Std.)
Fr, 06.12. 1:00 1009 - 3,2
Do, 05.12. 19:00 1015 - 1,9
Do, 05.12. 13:00 1018 - 0,3
Do, 05.12. 7:00 1019 + 0,3
Do, 05.12. 1:00 1020 - 0,9
Mi, 04.12. 19:00 1021 - 0,4
Mi, 04.12. 13:00 1022 - 0,5
Mi, 04.12. 7:00 1022 - 0,4
Ortszeit Luftdruck NN (hPa) Tendenz (hPa in 3 Std.)
Fr, 06.12. 1:00 1009 - 3,2
Fr, 06.12. 0:40 1009 keine Meldung
Fr, 06.12. 0:30 1010 - 3,0
Fr, 06.12. 0:20 1010 keine Meldung
Fr, 06.12. 0:10 1010 keine Meldung
Fr, 06.12. 0:00 1010 - 2,9
Do, 05.12. 23:50 1010 keine Meldung
Do, 05.12. 23:30 1011 - 2,9
Do, 05.12. 23:00 1012 - 2,6
Ortszeit Schneehöhe (cm)
Fr, 06.12. 1:00 0
Do, 05.12. 19:00 0
Do, 05.12. 13:00 0
Do, 05.12. 7:00 0
Do, 05.12. 1:00 0
Mi, 04.12. 19:00 0
Mi, 04.12. 13:00 0
Mi, 04.12. 7:00 0
Ortszeit Schneehöhe (cm)
Fr, 06.12. 1:00 0
Fr, 06.12. 0:40 0
Fr, 06.12. 0:30 0
Fr, 06.12. 0:20 0
Fr, 06.12. 0:10 0
Fr, 06.12. 0:00 0
Do, 05.12. 23:50 0
Do, 05.12. 23:30 0
Do, 05.12. 23:00 0
Link zu dieser Seite / Seite empfehlen

Das Wetter in ...